JST476 YSCB-YSSY
Flight info
| Callsign | JST476 |
|---|---|
| Flight time | 0h 32m |
| Altitude | 17000 |
| Route | CB W423 CULIN Y59 RIVET |
| Aircraft | B38M/M-SDE1FGHILORVWXY/HB1 |
Departure
| Time | 2026-05-01 10:13 |
|---|---|
| Airport | Canberra Airport (YSCB) |
Arrival
| Time | 2026-05-01 10:46 |
|---|---|
| Airport | Sydney Kingsford Smith International Airport (YSSY) |
| Time | Latitude | Longitude | Altitude | Speed | Heading |
|---|---|---|---|---|---|
| 2026-05-01 09:52 | -35.30625 | 149.19023 | 1879 ft | 0 kts | 220° |
| 2026-05-01 10:05 | -35.30608 | 149.19040 | 1876 ft | 4 kts | 212° |
| 2026-05-01 10:06 | -35.30584 | 149.19053 | 1879 ft | 4 kts | 189° |
| 2026-05-01 10:06 | -35.30561 | 149.19050 | 1879 ft | 4 kts | 136° |
| 2026-05-01 10:06 | -35.30557 | 149.19046 | 1876 ft | 1 kts | 129° |
| 2026-05-01 10:10 | -35.30558 | 149.19047 | 1879 ft | 1 kts | 129° |
| 2026-05-01 10:10 | -35.30577 | 149.19076 | 1879 ft | 7 kts | 130° |
| 2026-05-01 10:10 | -35.30702 | 149.19233 | 1875 ft | 17 kts | 157° |
| 2026-05-01 10:11 | -35.30822 | 149.19241 | 1879 ft | 18 kts | 180° |
| 2026-05-01 10:11 | -35.30947 | 149.19241 | 1879 ft | 18 kts | 180° |
| 2026-05-01 10:11 | -35.31077 | 149.19240 | 1879 ft | 19 kts | 180° |
| 2026-05-01 10:11 | -35.31210 | 149.19240 | 1879 ft | 19 kts | 180° |
| 2026-05-01 10:12 | -35.31345 | 149.19240 | 1879 ft | 19 kts | 180° |
| 2026-05-01 10:12 | -35.31428 | 149.19265 | 1876 ft | 19 kts | 142° |
| 2026-05-01 10:12 | -35.31156 | 149.19444 | 1879 ft | 70 kts | 360° |
| 2026-05-01 10:13 | -35.30449 | 149.19442 | 1879 ft | 131 kts | 359° |
| 2026-05-01 10:13 | -35.29383 | 149.19440 | 2029 ft | 165 kts | 2° |
| 2026-05-01 10:13 | -35.28197 | 149.19498 | 2617 ft | 174 kts | 7° |
| 2026-05-01 10:14 | -35.25919 | 149.19853 | 4142 ft | 165 kts | 6° |
| 2026-05-01 10:14 | -35.24764 | 149.19972 | 4590 ft | 172 kts | 6° |
| 2026-05-01 10:14 | -35.23531 | 149.20104 | 4980 ft | 184 kts | 6° |
| 2026-05-01 10:14 | -35.22196 | 149.20255 | 5401 ft | 196 kts | 6° |
| 2026-05-01 10:15 | -35.20783 | 149.20423 | 5787 ft | 212 kts | 6° |
| 2026-05-01 10:15 | -35.19284 | 149.20601 | 6179 ft | 228 kts | 5° |
| 2026-05-01 10:15 | -35.17657 | 149.20793 | 6638 ft | 242 kts | 6° |
| 2026-05-01 10:15 | -35.15933 | 149.20997 | 7135 ft | 256 kts | 6° |
| 2026-05-01 10:16 | -35.14113 | 149.21213 | 7660 ft | 268 kts | 6° |
| 2026-05-01 10:16 | -35.12228 | 149.21443 | 8306 ft | 275 kts | 8° |
| 2026-05-01 10:16 | -35.08556 | 149.22885 | 9827 ft | 280 kts | 20° |
| 2026-05-01 10:17 | -35.06722 | 149.23747 | 10496 ft | 287 kts | 20° |
| 2026-05-01 10:17 | -35.02813 | 149.25595 | 11318 ft | 315 kts | 21° |
| 2026-05-01 10:17 | -35.00718 | 149.26577 | 11676 ft | 330 kts | 20° |
| 2026-05-01 10:18 | -34.96243 | 149.28659 | 12360 ft | 357 kts | 20° |
| 2026-05-01 10:18 | -34.94695 | 149.29380 | 12711 ft | 362 kts | 20° |
| 2026-05-01 10:18 | -34.92336 | 149.30480 | 13374 ft | 364 kts | 20° |
| 2026-05-01 10:19 | -34.89955 | 149.31590 | 14025 ft | 368 kts | 21° |
| 2026-05-01 10:19 | -34.87555 | 149.32708 | 14656 ft | 372 kts | 20° |
| 2026-05-01 10:19 | -34.85130 | 149.33835 | 15286 ft | 375 kts | 20° |
| 2026-05-01 10:20 | -34.80211 | 149.36115 | 16508 ft | 382 kts | 21° |
| 2026-05-01 10:20 | -34.77719 | 149.37285 | 17089 ft | 386 kts | 23° |
| 2026-05-01 10:20 | -34.75354 | 149.38875 | 17369 ft | 394 kts | 35° |
| 2026-05-01 10:20 | -34.73324 | 149.41139 | 17379 ft | 400 kts | 50° |
| 2026-05-01 10:21 | -34.71797 | 149.43975 | 17393 ft | 401 kts | 61° |
| 2026-05-01 10:21 | -34.69169 | 149.50047 | 17389 ft | 414 kts | 62° |
| 2026-05-01 10:21 | -34.67835 | 149.53178 | 17385 ft | 420 kts | 62° |
| 2026-05-01 10:22 | -34.65060 | 149.59523 | 17384 ft | 430 kts | 61° |
| 2026-05-01 10:22 | -34.62226 | 149.65954 | 17377 ft | 428 kts | 62° |
| 2026-05-01 10:23 | -34.60831 | 149.69144 | 17380 ft | 429 kts | 62° |
| 2026-05-01 10:23 | -34.58037 | 149.75528 | 17380 ft | 426 kts | 62° |
| 2026-05-01 10:23 | -34.56641 | 149.78701 | 17380 ft | 425 kts | 62° |
| 2026-05-01 10:24 | -34.53859 | 149.85011 | 17383 ft | 424 kts | 62° |
| 2026-05-01 10:24 | -34.51077 | 149.91320 | 17382 ft | 424 kts | 62° |
| 2026-05-01 10:25 | -34.48295 | 149.97615 | 17386 ft | 424 kts | 62° |
| 2026-05-01 10:25 | -34.45528 | 150.03869 | 17383 ft | 423 kts | 62° |
| 2026-05-01 10:26 | -34.44138 | 150.07005 | 17383 ft | 423 kts | 62° |
| 2026-05-01 10:26 | -34.42742 | 150.10151 | 17383 ft | 423 kts | 62° |
| 2026-05-01 10:26 | -34.39950 | 150.16431 | 17389 ft | 423 kts | 62° |
| 2026-05-01 10:27 | -34.37155 | 150.22712 | 17391 ft | 424 kts | 62° |
| 2026-05-01 10:27 | -34.34354 | 150.28990 | 17390 ft | 424 kts | 61° |
| 2026-05-01 10:28 | -34.32955 | 150.32121 | 17394 ft | 424 kts | 61° |
| 2026-05-01 10:28 | -34.30198 | 150.38287 | 16267 ft | 407 kts | 61° |
| 2026-05-01 10:28 | -34.28865 | 150.41260 | 15712 ft | 397 kts | 61° |
| 2026-05-01 10:29 | -34.26306 | 150.46981 | 14662 ft | 377 kts | 61° |
| 2026-05-01 10:29 | -34.25074 | 150.49741 | 14156 ft | 369 kts | 61° |
| 2026-05-01 10:30 | -34.22686 | 150.55084 | 13174 ft | 353 kts | 61° |
| 2026-05-01 10:30 | -34.20390 | 150.60200 | 12231 ft | 340 kts | 61° |
| 2026-05-01 10:31 | -34.18174 | 150.65134 | 11328 ft | 329 kts | 61° |
| 2026-05-01 10:31 | -34.16044 | 150.69879 | 10752 ft | 309 kts | 61° |
| 2026-05-01 10:32 | -34.14076 | 150.74246 | 10507 ft | 284 kts | 60° |
| 2026-05-01 10:32 | -34.13142 | 150.76315 | 10432 ft | 285 kts | 60° |
| 2026-05-01 10:32 | -34.11144 | 150.80739 | 10375 ft | 298 kts | 60° |
| 2026-05-01 10:33 | -34.09232 | 150.84986 | 9914 ft | 282 kts | 60° |
| 2026-05-01 10:33 | -34.07367 | 150.89133 | 9141 ft | 280 kts | 60° |
| 2026-05-01 10:34 | -34.06441 | 150.91185 | 8789 ft | 278 kts | 60° |
| 2026-05-01 10:34 | -34.05522 | 150.93224 | 8438 ft | 276 kts | 60° |
| 2026-05-01 10:34 | -34.04609 | 150.95250 | 8081 ft | 273 kts | 60° |
| 2026-05-01 10:35 | -34.03175 | 150.99437 | 7280 ft | 275 kts | 85° |
| 2026-05-01 10:35 | -34.03518 | 151.01692 | 6930 ft | 277 kts | 114° |
| 2026-05-01 10:35 | -34.04653 | 151.03558 | 6620 ft | 276 kts | 130° |
| 2026-05-01 10:35 | -34.05957 | 151.05243 | 6253 ft | 275 kts | 132° |
| 2026-05-01 10:36 | -34.09002 | 151.07916 | 5768 ft | 269 kts | 161° |
| 2026-05-01 10:36 | -34.10735 | 151.08429 | 5806 ft | 243 kts | 165° |
| 2026-05-01 10:36 | -34.12305 | 151.08847 | 5678 ft | 226 kts | 166° |
| 2026-05-01 10:37 | -34.13849 | 151.09245 | 5335 ft | 224 kts | 166° |
| 2026-05-01 10:37 | -34.16739 | 151.09984 | 4919 ft | 204 kts | 165° |
| 2026-05-01 10:37 | -34.18112 | 151.10320 | 4654 ft | 200 kts | 166° |
| 2026-05-01 10:38 | -34.19447 | 151.10645 | 4443 ft | 192 kts | 163° |
| 2026-05-01 10:38 | -34.20497 | 151.11491 | 4264 ft | 183 kts | 121° |
| 2026-05-01 10:38 | -34.21031 | 151.12965 | 4076 ft | 191 kts | 100° |
| 2026-05-01 10:38 | -34.21220 | 151.14504 | 3874 ft | 182 kts | 91° |
| 2026-05-01 10:39 | -34.21253 | 151.16020 | 3670 ft | 180 kts | 86° |
| 2026-05-01 10:39 | -34.21218 | 151.17503 | 3469 ft | 178 kts | 85° |
| 2026-05-01 10:39 | -34.21152 | 151.18987 | 3263 ft | 176 kts | 84° |
| 2026-05-01 10:39 | -34.20887 | 151.20411 | 2928 ft | 180 kts | 60° |
| 2026-05-01 10:40 | -34.20088 | 151.21519 | 2724 ft | 173 kts | 36° |
| 2026-05-01 10:40 | -34.19010 | 151.22079 | 2677 ft | 171 kts | 17° |
| 2026-05-01 10:40 | -34.17826 | 151.22319 | 2682 ft | 175 kts | 9° |
| 2026-05-01 10:40 | -34.16605 | 151.22418 | 2674 ft | 177 kts | 5° |
| 2026-05-01 10:41 | -34.15360 | 151.22413 | 2615 ft | 181 kts | 2° |
| 2026-05-01 10:41 | -34.14122 | 151.22322 | 2605 ft | 179 kts | 358° |
| 2026-05-01 10:41 | -34.11622 | 151.21894 | 2474 ft | 179 kts | 355° |
| 2026-05-01 10:42 | -34.10393 | 151.21626 | 2446 ft | 178 kts | 352° |
| 2026-05-01 10:42 | -34.09203 | 151.21331 | 2425 ft | 175 kts | 351° |
| 2026-05-01 10:42 | -34.08005 | 151.21038 | 2307 ft | 176 kts | 351° |
| 2026-05-01 10:42 | -34.06813 | 151.20746 | 2137 ft | 174 kts | 351° |
| 2026-05-01 10:43 | -34.05635 | 151.20452 | 1939 ft | 173 kts | 350° |
| 2026-05-01 10:43 | -34.04458 | 151.20153 | 1707 ft | 173 kts | 350° |
| 2026-05-01 10:43 | -34.03282 | 151.19860 | 1446 ft | 173 kts | 349° |
| 2026-05-01 10:43 | -34.02124 | 151.19574 | 1187 ft | 163 kts | 348° |
| 2026-05-01 10:44 | -34.01047 | 151.19286 | 990 ft | 159 kts | 347° |
| 2026-05-01 10:44 | -33.99980 | 151.18993 | 758 ft | 155 kts | 348° |
| 2026-05-01 10:44 | -33.98934 | 151.18723 | 521 ft | 152 kts | 348° |
| 2026-05-01 10:44 | -33.97917 | 151.18462 | 337 ft | 149 kts | 348° |
| 2026-05-01 10:45 | -33.96908 | 151.18185 | 166 ft | 148 kts | 347° |
| 2026-05-01 10:45 | -33.95916 | 151.17933 | 30 ft | 143 kts | 346° |
| 2026-05-01 10:45 | -33.95150 | 151.17731 | 27 ft | 79 kts | 348° |
| 2026-05-01 10:45 | -33.94724 | 151.17644 | 28 ft | 54 kts | 358° |
| 2026-05-01 10:46 | -33.94480 | 151.17695 | 29 ft | 25 kts | 18° |
| 2026-05-01 10:46 | -33.94359 | 151.17732 | 29 ft | 14 kts | 5° |
| 2026-05-01 10:46 | -33.94260 | 151.17712 | 28 ft | 15 kts | 346° |
| 2026-05-01 10:46 | -33.94191 | 151.17691 | 29 ft | 4 kts | 346° |
| 2026-05-01 10:47 | -33.94187 | 151.17689 | 28 ft | 0 kts | 346° |
| 2026-05-01 10:47 | -33.94185 | 151.17689 | 28 ft | 1 kts | 346° |
| 2026-05-01 10:47 | -33.94174 | 151.17685 | 28 ft | 3 kts | 346° |
| 2026-05-01 10:48 | -33.94135 | 151.17674 | 28 ft | 8 kts | 346° |
| 2026-05-01 10:48 | -33.94067 | 151.17655 | 27 ft | 12 kts | 347° |
| 2026-05-01 10:48 | -33.93974 | 151.17630 | 28 ft | 14 kts | 348° |
| 2026-05-01 10:48 | -33.93879 | 151.17605 | 28 ft | 14 kts | 348° |
| 2026-05-01 10:49 | -33.93783 | 151.17579 | 28 ft | 14 kts | 347° |
| 2026-05-01 10:49 | -33.93684 | 151.17562 | 28 ft | 12 kts | 11° |
| 2026-05-01 10:49 | -33.93625 | 151.17605 | 28 ft | 6 kts | 33° |
| 2026-05-01 10:49 | -33.93603 | 151.17647 | 28 ft | 6 kts | 80° |
| 2026-05-01 10:50 | -33.93597 | 151.17680 | 29 ft | 0 kts | 78° |